x

Tillamook, Or - 85 Nm Wnw Of Tillamook, Or (46089) Wave Buoy

6:50am - Wed 31st Aug 2016 All times are PDT. -7 hours from GMT.

  • Sig Wave height 3.9ft
  • Swell Direction
  • Peak Period 6s
  • Average Period 6s
  • Wind
    9mph, 11mph gusts
  • Sea Temp 64°f
  • Air Temp 62°f
  • Sea Pressure 1013.7mb
  • Tillamook, Or - 85 Nm Wnw Of Tillamook, Or
  • Tillamook, Or - 85 Nm Wnw Of Tillamook, Or

More Historic Weather Station data

Upgrade to MSW Pro to gain access to the past 30 days of data for over 8000 Wavebouys and Weather Stations around the globe.

Join Pro

Comparision Forecast

View Surf forecast
   
Wed 08/31 6:50am 4ft 6s 6s 9 11 mph 1013.7mb 64f 62f
5:50am 4.5ft 6s 6s 7 9 mph 1013.5mb 64f 62f
4:50am 4.5ft 7s 6s 7 9 mph 1013.4mb 64f 62f
3:50am 4.5ft 7s 6s 7
mph
1013.5mb 64f 62f
2:50am 4.5ft 6s 6s 7 9 mph 1013.3mb 64f 62f
12:50am 4.5ft 6s 6s 9 11 mph 1013.4mb 64f 62f
Tue 08/30 11:50pm 5ft 6s 5s 9 11 mph 1013.2mb 64f 62f
10:50pm 5ft 6s 5s 16 18 mph 1012.8mb 64f 63f
9:50pm 5.5ft 6s 5s 18 20 mph 1012.7mb 64f 63f
8:50pm 6ft 6s 5s 18 22 mph 1012.4mb 64f 63f
7:50pm 6ft 6s 5s 20 25 mph 1012.3mb 64f 63f
6:50pm 6.5ft 6s 5s 25 29 mph 1012.7mb 64f 62f
5:50pm 6ft 6s 5s 22 29 mph 1013.1mb 64f 62f
4:50pm 5.5ft 6s 5s 22 29 mph 1013.3mb 64f 61f
3:50pm 6ft 6s 5s 22 27 mph 1013.5mb 64f 62f
2:50pm 6ft 6s 5s 22 29 mph 1013.6mb 64f 63f
1:50pm 6ft 6s 5s 20 25 mph 1013.9mb 64f 63f
12:50pm 5ft 5s 5s 20 27 mph 1013.8mb 64f 63f
11:50am 5ft 5s 5s 20 25 mph 1014mb 64f 63f
10:50am 5ft 5s 5s 20 22 mph 1013.9mb 64f 63f
9:50am 5ft 8s 5s 20 25 mph 1014mb 64f 63f
8:50am 5ft 8s 5s 18 22 mph 1014.1mb 64f 63f
7:50am 5ft 5s 5s 18 22 mph 1014.3mb 64f 63f
6:50am 5ft 6s 5s 18 22 mph 1014.4mb 64f 63f
5:50am 5.5ft 5s 5s 18 22 mph 1014.5mb 64f 63f
4:50am 5ft 5s 5s 20 22 mph 1014.7mb 64f 63f
3:50am 5ft 5s 5s 20 22 mph 1015.1mb 64f 62f
2:50am 5ft 5s 5s 18 22 mph 1015.2mb 64f 62f
1:50am 5ft 8s 5s 20 22 mph 1015.4mb 64f 62f
12:50am 5ft 9s 5s 20 25 mph 1015.3mb 64f 62f
Mon 08/29 11:50pm 5ft 9s 5s 20 22 mph 1015.4mb 64f 62f
10:50pm 5ft 9s 6s 18 22 mph 1015.3mb 64f 62f
9:50pm 5ft 9s 6s 18 20 mph 1015.5mb 64f 62f
8:50pm 5ft 9s 6s 16 18 mph 1015.6mb 64f 62f
7:50pm 5ft 9s 6s 16 18 mph 1015.5mb 64f 63f
6:50pm 5ft 8s 6s 13 16 mph 1015.9mb 64f 63f
5:50pm 5ft 9s 6s 13 18 mph 1015.9mb 64f 63f
4:50pm 4.5ft 8s 5s 16 20 mph 1016mb 64f 62f
3:50pm 4.5ft 8s 5s 18 20 mph 1016.3mb 64f 61f
2:50pm 4.5ft 14s  -  18 20 mph 1016.4mb 64f 62f
1:50pm 4.5ft 5s 5s 18 20 mph 1016.3mb 64f 62f
12:50pm 4.5ft 5s 5s 20 25 mph 1016.2mb 64f 62f
11:50am 4.5ft 13s 5s 20 25 mph 1016.5mb 64f 62f
10:50am 4ft 8s 5s 20 22 mph 1016.4mb 64f 62f
9:50am 3.5ft 14s 6s 16 18 mph 1016.6mb 64f 62f
8:50am 3.5ft 14s 6s 9 16 mph 1016.9mb 64f 62f
7:50am 3.5ft 14s 6s 7 9 mph 1017.1mb 64f 62f
6:50am 3.5ft 13s 6s 9 13 mph 1016.9mb 64f 62f
5:50am 3ft 8s 6s 11 13 mph 1017mb 64f 62f
4:50am 3.5ft 14s 6s 9 11 mph 1017.1mb 64f 61f
3:50am 3.5ft 14s 6s 13 16 mph 1017.3mb 64f 62f
2:50am 3.5ft 14s 6s 16 18 mph 1017mb 64f 62f
1:50am 3ft 15s 6s 11 13 mph 1017.3mb 64f 62f
12:50am 3.5ft 8s 7s 11 13 mph 1017.4mb 64f 63f
Sun 08/28 11:50pm 3.5ft 13s 6s 11 13 mph 1017.6mb 64f 63f
10:50pm 3.5ft 8s 6s 9 13 mph 1017.4mb 64f 63f
9:50pm 3.5ft 13s 6s 9 11 mph 1017.5mb 64f 62f
8:50pm 3ft 8s 6s 11
mph
1017.5mb 64f 63f
7:50pm 3.5ft 8s 6s 9 11 mph 1017.6mb 64f 63f
6:50pm 4ft 8s 7s 9 11 mph 1017.7mb 64f 62f
5:50pm 4ft 8s 7s 11 13 mph 1017.7mb 64f 62f
4:50pm 4ft 8s 7s 9 11 mph 1017.9mb 64f 63f
3:50pm 3.5ft 8s 7s 9 11 mph 1018mb 64f 63f
2:50pm 3.5ft 8s 7s 9 11 mph 1018.4mb 64f 62f
1:50pm 3.5ft 7s 7s 9 11 mph 1018.6mb 64f 62f
12:50pm 4ft 8s 7s 9 11 mph 1018.4mb 64f 62f
11:50am 4ft 8s 7s 9 11 mph 1018.1mb 64f 62f
10:50am 4ft 8s 7s 7 11 mph 1018mb 64f 62f
9:50am 4ft 7s 7s 4 7 mph 1017.9mb 64f 62f
8:50am 4.5ft 8s 7s 4 7 mph 1017.6mb 64f 62f
7:50am 3.5ft 8s 6s 7 9 mph 1017.3mb 64f 62f
6:50am 4.5ft 8s 7s 4 7 mph 1017.3mb 64f 62f
5:50am 5ft 8s 7s 4 7 mph 1017.4mb 64f 62f
4:50am 4.5ft 8s 7s 4 7 mph 1017.5mb 64f 62f
3:50am 4.5ft 8s 6s 2
mph
1017.3mb 64f 62f
2:50am 5ft 8s 6s 2
mph
1017.3mb 64f 62f
12:50am 5ft 8s 6s 2 4 mph 1017mb 64f 62f
Sat 08/27 11:50pm 5ft 8s 6s  -  4 mph 1017mb 64f 62f
10:50pm 5ft 8s 6s  -  2 mph 1016.8mb 64f 62f
9:50pm 6ft 8s 6s 7 9 mph 1016.7mb 64f 62f
7:50pm 6ft 8s 7s 9 11 mph 1016.2mb 64f 62f
6:50pm 6ft 8s 6s 9 11 mph 1016.2mb 64f 62f
5:50pm 6.5ft 8s 7s 9 11 mph 1016.3mb 64f 62f
4:50pm 6ft 8s 6s 11 13 mph 1015.9mb 64f 62f
3:50pm 6ft 9s 7s 9 11 mph 1016mb 64f 62f